createdAt,value
2018-07-15T00:02:02.210Z,75.29
2018-07-15T00:04:29.540Z,74.91
2018-07-15T00:06:57.146Z,75.27
2018-07-15T00:09:25.236Z,75.25
2018-07-15T00:11:53.347Z,74.85
2018-07-15T00:14:27.431Z,75.41
2018-07-15T00:16:54.729Z,75.00
2018-07-15T00:19:21.994Z,75.05
2018-07-15T00:21:49.845Z,75.50
2018-07-15T00:24:17.293Z,75.10
2018-07-15T00:26:44.536Z,75.75
2018-07-15T00:29:11.737Z,75.76
2018-07-15T00:31:39.588Z,75.37
2018-07-15T00:34:06.839Z,75.17
2018-07-15T00:36:34.072Z,75.37
2018-07-15T00:39:01.994Z,75.39
2018-07-15T00:41:29.382Z,75.34
2018-07-15T00:43:56.667Z,75.14
2018-07-15T00:46:23.999Z,74.74
2018-07-15T00:48:51.310Z,75.60
2018-07-15T00:51:18.601Z,75.06
2018-07-15T00:53:45.836Z,75.47
2018-07-15T00:56:13.067Z,75.18
2018-07-15T00:58:40.281Z,74.76
2018-07-15T01:01:07.642Z,74.66
2018-07-15T01:03:35.520Z,75.57
2018-07-15T01:06:02.794Z,75.12
2018-07-15T01:08:30.584Z,75.19
2018-07-15T01:10:57.874Z,75.01
2018-07-15T01:13:25.113Z,75.07
2018-07-15T01:15:52.679Z,74.86
2018-07-15T01:18:20.436Z,74.56
2018-07-15T01:20:47.702Z,74.58
2018-07-15T01:23:15.174Z,74.34
2018-07-15T01:25:42.470Z,74.11
2018-07-15T01:28:10.017Z,74.54
2018-07-15T01:30:37.224Z,74.67
2018-07-15T01:33:04.887Z,75.02
2018-07-15T01:35:32.161Z,75.12
2018-07-15T01:37:59.421Z,74.87
2018-07-15T01:40:26.727Z,74.86
2018-07-15T01:42:54.050Z,75.11
2018-07-15T01:45:21.332Z,75.33
2018-07-15T01:47:48.892Z,75.16
2018-07-15T01:50:16.297Z,74.82
2018-07-15T01:52:43.709Z,75.12
2018-07-15T01:55:10.996Z,74.64
2018-07-15T01:57:38.301Z,75.06
2018-07-15T02:00:05.778Z,75.03
2018-07-15T02:02:33.377Z,74.99
2018-07-15T02:05:00.634Z,74.71
2018-07-15T02:07:27.865Z,74.88
2018-07-15T02:09:55.140Z,74.74
2018-07-15T02:12:22.409Z,74.63
2018-07-15T02:14:49.658Z,74.71
2018-07-15T02:17:16.906Z,74.76
2018-07-15T02:19:44.114Z,74.95
2018-07-15T02:22:11.444Z,75.51
2018-07-15T02:24:38.710Z,75.30
2018-07-15T02:27:06.127Z,75.12
2018-07-15T02:29:33.324Z,75.04
2018-07-15T02:32:00.825Z,74.90
2018-07-15T02:34:28.057Z,75.45
2018-07-15T02:36:55.341Z,75.32
2018-07-15T02:39:22.726Z,75.23
2018-07-15T02:41:49.965Z,75.69
2018-07-15T02:44:17.330Z,74.98
2018-07-15T02:46:44.558Z,75.08
2018-07-15T02:49:12.271Z,75.45
2018-07-15T02:51:39.739Z,74.93
2018-07-15T02:54:07.351Z,75.08
2018-07-15T02:56:34.590Z,75.00
2018-07-15T02:59:01.836Z,74.96
2018-07-15T03:01:29.302Z,74.95
2018-07-15T03:03:56.626Z,74.90
2018-07-15T03:06:23.847Z,75.18
2018-07-15T03:08:51.049Z,75.01
2018-07-15T03:11:19.330Z,75.69
2018-07-15T03:13:46.536Z,75.43
2018-07-15T03:16:13.975Z,75.65
2018-07-15T03:18:41.517Z,75.70
2018-07-15T03:21:09.090Z,75.69
2018-07-15T03:23:36.286Z,75.65
2018-07-15T03:26:04.219Z,75.67
2018-07-15T03:28:31.717Z,75.36
2018-07-15T03:30:58.968Z,75.67
2018-07-15T03:33:26.249Z,75.79
2018-07-15T03:35:53.461Z,76.02
2018-07-15T03:38:20.713Z,76.19
2018-07-15T03:40:47.924Z,76.16
2018-07-15T03:43:15.327Z,75.85
2018-07-15T03:45:42.807Z,75.92
2018-07-15T03:48:10.120Z,76.40
2018-07-15T03:50:37.766Z,76.49
2018-07-15T03:53:05.038Z,76.05
2018-07-15T03:55:32.405Z,76.66
2018-07-15T03:58:00.699Z,76.01
2018-07-15T04:00:28.002Z,76.18
2018-07-15T04:02:55.426Z,76.05
2018-07-15T04:05:23.273Z,76.51
2018-07-15T04:07:50.529Z,76.22
2018-07-15T04:10:17.794Z,76.00
2018-07-15T04:12:45.348Z,76.72
2018-07-15T04:15:12.800Z,75.81
2018-07-15T04:17:40.872Z,76.11
2018-07-15T04:20:08.404Z,76.22
2018-07-15T04:22:35.650Z,75.71
2018-07-15T04:25:02.903Z,76.27
2018-07-15T04:27:30.162Z,76.49
2018-07-15T04:29:58.138Z,76.10
2018-07-15T04:32:25.462Z,76.23
2018-07-15T04:34:53.709Z,76.12
2018-07-15T04:37:20.930Z,76.04
2018-07-15T04:39:48.202Z,76.08
2018-07-15T04:42:15.552Z,76.07
2018-07-15T04:44:42.798Z,75.93
2018-07-15T04:47:10.049Z,75.94
2018-07-15T04:49:37.465Z,75.75
2018-07-15T04:52:04.793Z,75.84
2018-07-15T04:54:32.034Z,75.72
2018-07-15T04:56:59.269Z,75.71
2018-07-15T04:59:26.557Z,75.49
2018-07-15T05:01:53.795Z,75.42
2018-07-15T05:04:21.028Z,75.18
2018-07-15T05:06:49.045Z,74.73
2018-07-15T05:09:16.394Z,74.88
2018-07-15T05:11:43.681Z,74.67
2018-07-15T05:14:10.933Z,74.72
2018-07-15T05:16:38.224Z,73.92
2018-07-15T05:19:05.583Z,74.01
2018-07-15T05:21:33.265Z,73.67
2018-07-15T05:24:00.505Z,73.53
2018-07-15T05:26:27.797Z,73.07
2018-07-15T05:28:55.173Z,72.90
2018-07-15T05:31:22.493Z,72.54
2018-07-15T05:33:49.862Z,72.46
2018-07-15T05:36:17.100Z,72.12
2018-07-15T05:38:44.284Z,72.16
2018-07-15T05:41:11.565Z,71.77
2018-07-15T05:43:38.822Z,71.30
2018-07-15T05:46:06.114Z,71.15
2018-07-15T05:48:33.361Z,70.75
2018-07-15T05:51:00.596Z,70.77
2018-07-15T05:53:27.970Z,70.39
2018-07-15T05:55:55.220Z,69.98
2018-07-15T05:58:22.709Z,69.85
2018-07-15T06:00:50.233Z,69.94
2018-07-15T06:03:17.653Z,69.79
2018-07-15T06:05:46.054Z,69.16
2018-07-15T06:08:13.429Z,68.75
2018-07-15T06:10:41.037Z,68.73
2018-07-15T06:13:15.407Z,68.15
2018-07-15T06:15:43.328Z,67.66
2018-07-15T06:18:10.733Z,66.56
2018-07-15T06:20:38.244Z,67.06
2018-07-15T06:23:05.575Z,66.88
2018-07-15T06:25:32.983Z,66.59
2018-07-15T06:28:00.239Z,66.48
2018-07-15T06:30:27.539Z,65.80
2018-07-15T06:32:54.917Z,65.13
2018-07-15T06:35:22.492Z,65.49
2018-07-15T06:37:50.108Z,64.84
2018-07-15T06:40:17.378Z,65.00
2018-07-15T06:42:44.662Z,64.52
2018-07-15T06:45:11.861Z,63.68
2018-07-15T06:47:39.252Z,63.09
2018-07-15T06:50:06.716Z,63.10
2018-07-15T06:52:34.149Z,62.59
2018-07-15T06:55:01.450Z,62.51
2018-07-15T06:57:29.137Z,62.66
2018-07-15T06:59:56.460Z,62.01
2018-07-15T07:02:23.731Z,60.79
2018-07-15T07:04:51.092Z,61.15
2018-07-15T07:07:18.423Z,60.51
2018-07-15T07:09:45.695Z,60.71
2018-07-15T07:12:13.283Z,60.34
2018-07-15T07:14:40.645Z,59.58
2018-07-15T07:17:08.031Z,59.45
2018-07-15T07:19:35.467Z,58.53
2018-07-15T07:22:02.749Z,58.62
2018-07-15T07:24:30.140Z,58.30
2018-07-15T07:26:57.420Z,58.45
2018-07-15T07:29:24.798Z,58.00
2018-07-15T07:31:52.195Z,57.86
2018-07-15T07:34:19.546Z,57.14
2018-07-15T07:36:46.835Z,56.36
2018-07-15T07:39:20.823Z,55.55
2018-07-15T07:41:48.130Z,53.59
2018-07-15T07:44:15.508Z,48.86
2018-07-15T07:46:43.639Z,40.77
2018-07-15T07:49:11.025Z,44.50
2018-07-15T07:51:38.341Z,45.41
2018-07-15T07:54:05.717Z,44.07
2018-07-15T07:56:33.038Z,37.72
2018-07-15T07:59:00.489Z,30.64
2018-07-15T08:01:28.519Z,28.01
2018-07-15T08:03:55.762Z,24.07
2018-07-15T08:06:23.075Z,24.16
2018-07-15T08:08:50.313Z,25.93
2018-07-15T08:11:17.565Z,28.06
2018-07-15T08:13:44.870Z,29.10
2018-07-15T08:16:12.306Z,29.69
2018-07-15T08:18:39.667Z,31.07
2018-07-15T08:21:06.911Z,32.76
2018-07-15T08:23:34.174Z,30.77
2018-07-15T08:26:01.468Z,29.40
2018-07-15T08:28:28.964Z,30.95
2018-07-15T08:31:16.619Z,31.28
2018-07-15T08:33:43.838Z,29.80
2018-07-15T08:36:11.522Z,33.06
2018-07-15T08:38:38.977Z,31.28
2018-07-15T08:41:06.211Z,30.79
2018-07-15T08:43:33.451Z,30.38
2018-07-15T08:46:00.880Z,29.80
2018-07-15T08:48:28.192Z,27.26
2018-07-15T08:50:55.555Z,28.85
2018-07-15T08:53:22.813Z,29.77
2018-07-15T08:55:50.205Z,32.91
2018-07-15T08:58:17.614Z,32.76
2018-07-15T09:00:44.872Z,33.67
2018-07-15T09:03:12.241Z,34.27
2018-07-15T09:05:39.533Z,36.13
2018-07-15T09:08:07.047Z,35.84
2018-07-15T09:10:34.462Z,37.43
2018-07-15T09:13:01.733Z,37.34
2018-07-15T09:15:28.956Z,37.66
2018-07-15T09:17:56.236Z,38.88
2018-07-15T09:20:24.179Z,39.39
2018-07-15T09:22:51.478Z,39.46
2018-07-15T09:25:18.771Z,39.85
2018-07-15T09:27:46.024Z,38.88
2018-07-15T09:30:13.385Z,40.14
2018-07-15T09:32:40.633Z,40.02
2018-07-15T09:35:08.621Z,41.37
2018-07-15T09:37:35.876Z,41.17
2018-07-15T09:40:03.110Z,39.97
2018-07-15T09:42:30.387Z,39.86
2018-07-15T09:44:57.727Z,40.41
2018-07-15T09:47:25.029Z,40.09
2018-07-15T09:49:52.314Z,39.99
2018-07-15T09:52:19.676Z,39.86
2018-07-15T09:54:47.167Z,40.17
2018-07-15T09:57:14.508Z,40.02
2018-07-15T09:59:41.927Z,39.32
2018-07-15T10:02:09.371Z,37.37
2018-07-15T10:04:36.644Z,35.54
2018-07-15T10:07:04.063Z,34.51
2018-07-15T10:09:31.304Z,33.67
2018-07-15T10:11:59.228Z,35.02
2018-07-15T10:14:26.564Z,34.37
2018-07-15T10:16:53.788Z,33.09
2018-07-15T10:19:21.047Z,32.35
2018-07-15T10:21:48.282Z,30.77
2018-07-15T10:24:15.663Z,30.13
2018-07-15T10:26:43.254Z,30.91
2018-07-15T10:29:10.446Z,29.19
2018-07-15T10:31:37.731Z,27.87
2018-07-15T10:34:05.008Z,29.44
2018-07-15T10:36:32.241Z,28.58
2018-07-15T10:38:59.626Z,27.25
2018-07-15T10:41:26.864Z,28.31
2018-07-15T10:43:54.909Z,24.93
2018-07-15T10:46:22.138Z,25.92
2018-07-15T10:48:50.518Z,26.85
2018-07-15T10:51:17.816Z,25.37
2018-07-15T10:53:45.117Z,26.63
2018-07-15T10:56:12.472Z,26.21
2018-07-15T10:58:40.306Z,25.37
2018-07-15T11:01:07.756Z,25.49
2018-07-15T11:03:34.977Z,26.70
2018-07-15T11:06:02.267Z,26.26
2018-07-15T11:08:30.210Z,25.16
2018-07-15T11:10:57.478Z,25.86
2018-07-15T11:13:24.969Z,26.52
2018-07-15T11:15:52.229Z,25.23
2018-07-15T11:18:19.689Z,24.72
2018-07-15T11:20:46.949Z,23.74
2018-07-15T11:23:14.267Z,24.94
2018-07-15T11:25:41.682Z,23.36
2018-07-15T11:28:08.914Z,25.38
2018-07-15T11:30:36.228Z,23.46
2018-07-15T11:33:03.513Z,26.01
2018-07-15T11:35:30.767Z,25.33
2018-07-15T11:37:58.122Z,25.92
2018-07-15T11:40:25.453Z,25.00
2018-07-15T11:42:52.839Z,24.91
2018-07-15T11:45:20.217Z,23.98
2018-07-15T11:47:48.192Z,23.90
2018-07-15T11:50:15.510Z,22.74
2018-07-15T11:52:42.823Z,21.87
2018-07-15T11:55:10.062Z,24.57
2018-07-15T11:57:37.518Z,23.28
2018-07-15T12:00:05.565Z,24.71
2018-07-15T12:02:32.961Z,24.56
2018-07-15T12:05:00.405Z,23.58
2018-07-15T12:07:27.676Z,24.54
2018-07-15T12:09:54.927Z,23.65
2018-07-15T12:12:22.185Z,21.41
2018-07-15T12:14:49.435Z,21.45
2018-07-15T12:17:16.690Z,21.82
2018-07-15T12:19:44.873Z,21.85
2018-07-15T12:22:12.129Z,22.46
2018-07-15T12:24:39.401Z,22.14
2018-07-15T12:27:06.654Z,21.04
2018-07-15T12:29:34.034Z,21.51
2018-07-15T12:32:01.256Z,21.63
2018-07-15T12:34:28.571Z,21.10
2018-07-15T12:36:55.877Z,21.31
2018-07-15T12:39:23.134Z,20.36
2018-07-15T12:41:50.393Z,21.88
2018-07-15T12:44:18.105Z,21.21
2018-07-15T12:46:45.410Z,20.65
2018-07-15T12:49:12.698Z,22.28
2018-07-15T12:51:40.011Z,22.13
2018-07-15T12:54:07.257Z,22.97
2018-07-15T12:59:08.545Z,22.66
2018-07-15T13:01:35.787Z,22.23
2018-07-15T13:04:03.072Z,21.49
2018-07-15T13:06:30.415Z,23.06
2018-07-15T13:08:58.445Z,24.19
2018-07-15T13:11:25.677Z,25.12
2018-07-15T13:13:52.911Z,26.11
2018-07-15T13:16:20.273Z,25.38
2018-07-15T13:18:47.567Z,25.85
2018-07-15T13:21:14.885Z,25.67
2018-07-15T13:23:42.198Z,25.52
2018-07-15T13:26:09.485Z,26.29
2018-07-15T13:28:36.772Z,27.23
2018-07-15T13:31:04.061Z,26.08
2018-07-15T13:33:31.297Z,25.31
2018-07-15T13:35:58.569Z,25.34
2018-07-15T13:38:25.830Z,25.64
2018-07-15T13:40:53.105Z,26.36
2018-07-15T13:43:20.412Z,26.19
2018-07-15T13:45:47.669Z,25.52
2018-07-15T13:48:14.902Z,25.31
2018-07-15T13:50:42.216Z,26.49
2018-07-15T13:53:09.534Z,26.66
2018-07-15T13:55:36.863Z,28.09
2018-07-15T13:58:04.237Z,26.98
2018-07-15T14:00:31.522Z,28.38
2018-07-15T14:02:58.850Z,26.80
2018-07-15T14:05:27.057Z,26.79
2018-07-15T14:07:54.463Z,26.46
2018-07-15T14:10:21.812Z,26.48
2018-07-15T14:12:49.677Z,25.28
2018-07-15T14:15:16.949Z,26.15
2018-07-15T14:17:44.205Z,27.98
2018-07-15T14:20:12.244Z,29.29
2018-07-15T14:22:40.346Z,26.61
2018-07-15T14:25:07.773Z,27.29
2018-07-15T14:27:35.018Z,27.61
2018-07-15T14:30:02.299Z,26.28
2018-07-15T14:32:29.969Z,26.42
2018-07-15T14:34:57.289Z,25.48
2018-07-15T14:37:24.625Z,25.71
2018-07-15T14:39:51.974Z,26.30
2018-07-15T14:42:19.862Z,25.03
2018-07-15T14:44:47.136Z,26.04
2018-07-15T14:47:14.392Z,29.33
2018-07-15T14:49:41.701Z,30.86
2018-07-15T14:52:08.993Z,30.37
2018-07-15T14:54:36.458Z,30.93
2018-07-15T14:57:04.253Z,30.04
2018-07-15T14:59:31.678Z,31.39
2018-07-15T15:01:59.221Z,31.32
2018-07-15T15:04:26.485Z,31.67
2018-07-15T15:06:53.950Z,32.23
2018-07-15T15:09:21.346Z,32.07
2018-07-15T15:11:48.780Z,31.61
2018-07-15T15:14:16.199Z,31.58
2018-07-15T15:16:43.567Z,31.94
2018-07-15T15:19:11.048Z,31.49
2018-07-15T15:21:38.407Z,32.33
2018-07-15T15:24:06.147Z,31.98
2018-07-15T15:26:33.548Z,31.58
2018-07-15T15:29:00.853Z,32.13
2018-07-15T15:31:28.210Z,32.31
2018-07-15T15:33:55.651Z,32.00
2018-07-15T15:36:23.039Z,32.25
2018-07-15T15:38:50.491Z,32.70
2018-07-15T15:41:17.878Z,33.20
2018-07-15T15:43:45.309Z,32.80
2018-07-15T15:46:12.650Z,33.63
2018-07-15T15:48:40.034Z,33.28
2018-07-15T15:51:07.534Z,33.64
2018-07-15T15:53:34.885Z,34.04
2018-07-15T15:56:02.305Z,33.26
2018-07-15T15:58:29.748Z,33.75
2018-07-15T16:00:57.234Z,33.76
2018-07-15T16:03:24.694Z,33.28
2018-07-15T16:05:52.284Z,33.83
2018-07-15T16:08:20.540Z,34.02
2018-07-15T16:10:47.981Z,33.75
2018-07-15T16:13:15.425Z,34.43
2018-07-15T16:15:42.837Z,34.23
2018-07-15T16:18:10.144Z,34.02
2018-07-15T16:20:37.575Z,34.05
2018-07-15T16:23:05.266Z,34.04
2018-07-15T16:25:32.807Z,34.95
2018-07-15T16:28:00.153Z,35.06
2018-07-15T16:30:27.437Z,35.58
2018-07-15T16:32:54.811Z,35.59
2018-07-15T16:35:22.278Z,35.79
2018-07-15T16:37:49.634Z,35.83
2018-07-15T16:40:17.679Z,36.24
2018-07-15T16:42:45.274Z,36.65
2018-07-15T16:45:12.787Z,37.11
2018-07-15T16:47:40.330Z,35.93
2018-07-15T16:50:07.727Z,37.02
2018-07-15T16:52:35.220Z,37.53
2018-07-15T16:55:02.756Z,36.97
2018-07-15T16:57:30.282Z,36.91
2018-07-15T16:59:58.048Z,37.32
2018-07-15T17:02:25.434Z,36.52
2018-07-15T17:04:53.074Z,36.98
2018-07-15T17:07:20.461Z,37.09
2018-07-15T17:09:47.935Z,37.60
2018-07-15T17:12:15.261Z,37.61
2018-07-15T17:14:42.728Z,37.89
2018-07-15T17:17:10.275Z,38.64
2018-07-15T17:19:37.767Z,38.66
2018-07-15T17:22:05.117Z,38.10
2018-07-15T17:24:32.524Z,39.19
2018-07-15T17:26:59.886Z,38.52
2018-07-15T17:29:27.255Z,39.24
2018-07-15T17:31:54.607Z,39.42
2018-07-15T17:34:22.011Z,39.29
2018-07-15T17:36:49.417Z,39.13
2018-07-15T17:39:17.091Z,38.78
2018-07-15T17:41:45.287Z,38.58
2018-07-15T17:44:12.710Z,38.51
2018-07-15T17:46:40.163Z,39.14
2018-07-15T17:49:07.559Z,39.33
2018-07-15T17:51:34.946Z,39.54
2018-07-15T17:54:02.957Z,40.09
2018-07-15T17:56:30.406Z,39.69
2018-07-15T17:58:58.001Z,39.76
2018-07-15T18:01:25.314Z,40.16
2018-07-15T18:03:52.665Z,39.77
2018-07-15T18:06:20.089Z,39.65
2018-07-15T18:08:47.374Z,40.12
2018-07-15T18:11:14.738Z,40.31
2018-07-15T18:13:42.085Z,40.23
2018-07-15T18:16:09.572Z,39.76
2018-07-15T18:18:36.888Z,40.03
2018-07-15T18:21:04.382Z,40.16
2018-07-15T18:23:31.682Z,40.39
2018-07-15T18:25:59.357Z,40.05
2018-07-15T18:28:26.941Z,40.20
2018-07-15T18:30:54.433Z,40.77
2018-07-15T18:33:22.899Z,43.43
2018-07-15T18:35:50.416Z,44.55
2018-07-15T18:38:18.157Z,44.58
2018-07-15T18:40:46.024Z,45.81
2018-07-15T18:43:13.425Z,46.91
2018-07-15T18:45:41.146Z,47.97
2018-07-15T18:48:08.754Z,47.70
2018-07-15T18:50:36.081Z,46.64
2018-07-15T18:53:03.825Z,48.13
2018-07-15T18:55:31.706Z,47.55
2018-07-15T18:57:59.169Z,48.27
2018-07-15T19:00:26.593Z,48.39
2018-07-15T19:02:53.915Z,47.73
2018-07-15T19:05:21.179Z,47.21
2018-07-15T19:07:48.622Z,46.89
2018-07-15T19:10:16.080Z,47.45
2018-07-15T19:12:43.600Z,48.35
2018-07-15T19:15:10.930Z,49.08
2018-07-15T19:17:39.069Z,48.03
2018-07-15T19:20:06.588Z,49.08
2018-07-15T19:22:33.979Z,48.98
2018-07-15T19:25:01.490Z,48.53
2018-07-15T19:27:28.915Z,50.61
2018-07-15T19:29:56.328Z,49.27
2018-07-15T19:32:23.705Z,49.15
2018-07-15T19:34:51.192Z,49.32
2018-07-15T19:37:18.646Z,48.49
2018-07-15T19:39:46.306Z,49.91
2018-07-15T19:42:13.744Z,50.33
2018-07-15T19:44:41.221Z,50.58
2018-07-15T19:47:08.681Z,51.24
2018-07-15T19:49:36.107Z,51.03
2018-07-15T19:52:03.506Z,51.26
2018-07-15T19:54:31.133Z,51.72
2018-07-15T19:56:58.583Z,51.28
2018-07-15T19:59:26.055Z,51.64
2018-07-15T20:01:53.554Z,51.93
2018-07-15T20:04:20.905Z,52.01
2018-07-15T20:06:49.147Z,52.78
2018-07-15T20:09:16.498Z,52.68
2018-07-15T20:11:43.894Z,52.75
2018-07-15T20:14:11.319Z,52.67
2018-07-15T20:16:38.744Z,53.05
2018-07-15T20:19:06.780Z,53.03
2018-07-15T20:21:34.162Z,53.05
2018-07-15T20:24:01.660Z,53.87
2018-07-15T20:26:29.204Z,53.50
2018-07-15T20:28:56.615Z,53.26
2018-07-15T20:31:24.054Z,52.68
2018-07-15T20:33:52.271Z,52.92
2018-07-15T20:36:19.569Z,53.22
2018-07-15T20:38:47.781Z,53.21
2018-07-15T20:41:15.170Z,53.58
2018-07-15T20:43:43.187Z,53.32
2018-07-15T20:46:10.601Z,53.03
2018-07-15T20:48:38.095Z,53.64
2018-07-15T20:51:05.314Z,54.45
2018-07-15T20:53:33.049Z,54.26
2018-07-15T20:56:00.702Z,54.07
2018-07-15T20:58:28.143Z,54.32
2018-07-15T21:00:55.628Z,54.55
2018-07-15T21:03:23.137Z,53.98
2018-07-15T21:05:50.824Z,54.45
2018-07-15T21:08:18.179Z,53.81
2018-07-15T21:10:45.508Z,54.03
2018-07-15T21:13:12.963Z,54.54
2018-07-15T21:15:40.358Z,54.13
2018-07-15T21:18:07.814Z,54.63
2018-07-15T21:20:35.153Z,54.13
2018-07-15T21:23:02.618Z,54.25
2018-07-15T21:25:30.048Z,54.32
2018-07-15T21:27:57.368Z,53.90
2018-07-15T21:30:24.688Z,54.01
2018-07-15T21:32:51.990Z,54.11
2018-07-15T21:35:19.584Z,54.53
2018-07-15T21:37:46.923Z,55.15
2018-07-15T21:40:14.372Z,54.89
2018-07-15T21:42:41.649Z,55.35
2018-07-15T21:45:09.005Z,54.84
2018-07-15T21:47:36.346Z,54.87
2018-07-15T21:50:03.847Z,55.28
2018-07-15T21:52:31.146Z,55.56
2018-07-15T21:54:58.448Z,55.37
2018-07-15T21:57:25.838Z,55.80
2018-07-15T21:59:53.196Z,55.63
2018-07-15T22:02:20.776Z,56.19
2018-07-15T22:04:48.120Z,57.09
2018-07-15T22:07:26.642Z,56.85
2018-07-15T22:10:05.333Z,56.93
2018-07-15T22:12:32.653Z,56.60
2018-07-15T22:15:00.088Z,57.30
2018-07-15T22:17:27.594Z,57.44
2018-07-15T22:19:54.934Z,56.94
2018-07-15T22:22:22.214Z,57.53
2018-07-15T22:24:49.489Z,58.44
2018-07-15T22:27:16.801Z,58.03
2018-07-15T22:29:44.192Z,58.89
2018-07-15T22:32:11.552Z,59.19
2018-07-15T22:34:38.831Z,58.83
2018-07-15T22:37:06.169Z,59.59
2018-07-15T22:39:33.695Z,60.61
2018-07-15T22:42:01.118Z,60.00
2018-07-15T22:44:28.361Z,61.38
2018-07-15T22:46:55.618Z,60.39
2018-07-15T22:49:22.955Z,61.34
2018-07-15T22:51:50.326Z,60.96
2018-07-15T22:54:17.589Z,61.64
2018-07-15T22:56:44.888Z,61.29
2018-07-15T22:59:12.474Z,61.71
2018-07-15T23:01:39.803Z,62.02
2018-07-15T23:04:07.090Z,62.29
2018-07-15T23:06:36.256Z,62.12
2018-07-15T23:09:04.138Z,62.03
2018-07-15T23:11:31.377Z,62.91
2018-07-15T23:13:58.700Z,62.81
2018-07-15T23:16:25.991Z,63.38
2018-07-15T23:18:53.994Z,65.05
2018-07-15T23:21:21.235Z,63.60
2018-07-15T23:23:48.465Z,63.83
2018-07-15T23:26:15.794Z,63.64
2018-07-15T23:28:43.340Z,64.36
2018-07-15T23:31:10.665Z,65.28
2018-07-15T23:33:38.116Z,65.34
2018-07-15T23:36:05.525Z,65.70
2018-07-15T23:38:32.795Z,65.04
2018-07-15T23:41:00.109Z,67.86
2018-07-15T23:43:27.407Z,66.11
2018-07-15T23:45:54.670Z,66.58
2018-07-15T23:48:21.958Z,67.13
2018-07-15T23:50:49.274Z,67.14
2018-07-15T23:53:16.529Z,69.05
2018-07-15T23:55:43.882Z,68.13
2018-07-15T23:58:11.163Z,68.67
